createdAt,value
2023-05-05T00:00:20.820Z,9.57
2023-05-05T00:05:24.470Z,9.51
2023-05-05T00:10:27.004Z,9.52
2023-05-05T00:15:30.869Z,9.51
2023-05-05T00:20:33.339Z,9.48
2023-05-05T00:25:35.879Z,9.47
2023-05-05T00:30:40.850Z,9.48
2023-05-05T00:35:43.366Z,9.53
2023-05-05T00:40:45.913Z,9.42
2023-05-05T00:45:59.625Z,9.45
2023-05-05T00:51:02.339Z,9.40
2023-05-05T00:56:05.611Z,9.35
2023-05-05T01:01:10.212Z,9.30
2023-05-05T01:06:31.693Z,9.28
2023-05-05T01:11:44.773Z,9.30
2023-05-05T01:16:57.993Z,9.27
2023-05-05T01:22:04.402Z,9.26
2023-05-05T01:27:27.248Z,9.19
2023-05-05T01:32:36.509Z,9.17
2023-05-05T01:37:46.900Z,9.17
2023-05-05T01:42:51.707Z,9.14
2023-05-05T01:47:58.053Z,9.12
2023-05-05T01:53:02.395Z,9.20
2023-05-05T01:58:08.121Z,9.12
2023-05-05T02:03:15.448Z,9.11
2023-05-05T02:08:18.373Z,9.09
2023-05-05T02:13:22.653Z,9.14
2023-05-05T02:18:28.386Z,9.10
2023-05-05T02:23:32.254Z,9.12
2023-05-05T02:28:40.798Z,9.05
2023-05-05T02:33:47.938Z,9.09
2023-05-05T02:38:56.295Z,9.11
2023-05-05T02:44:01.929Z,9.13
2023-05-05T02:49:05.839Z,9.18
2023-05-05T02:54:08.473Z,9.14
2023-05-05T02:59:16.480Z,9.19
2023-05-05T03:04:27.315Z,9.15
2023-05-05T03:09:37.697Z,9.20
2023-05-05T03:14:42.821Z,9.28
2023-05-05T03:19:47.901Z,9.14
2023-05-05T03:24:53.391Z,9.16
2023-05-05T03:29:56.418Z,9.13
2023-05-05T03:35:00.220Z,9.12
2023-05-05T03:40:02.706Z,9.15
2023-05-05T03:45:05.823Z,9.16
2023-05-05T03:50:10.301Z,9.19
2023-05-05T03:55:12.851Z,9.13
2023-05-05T04:00:16.384Z,9.18
2023-05-05T04:05:22.449Z,9.19
2023-05-05T04:10:25.103Z,9.09
2023-05-05T04:15:27.615Z,9.13
2023-05-05T04:20:31.463Z,9.15
2023-05-05T04:25:33.958Z,9.12
2023-05-05T04:30:36.458Z,9.10
2023-05-05T04:35:40.287Z,9.10
2023-05-05T04:40:42.820Z,9.16
2023-05-05T04:45:53.497Z,9.21
2023-05-05T04:50:57.308Z,9.32
2023-05-05T04:56:01.100Z,9.32
2023-05-05T05:01:03.593Z,9.36
2023-05-05T05:06:07.833Z,9.35
2023-05-05T05:11:10.456Z,9.42
2023-05-05T05:16:13.053Z,9.43
2023-05-05T05:21:16.980Z,9.50
2023-05-05T05:26:19.518Z,9.60
2023-05-05T05:31:22.011Z,9.62
2023-05-05T05:36:26.243Z,9.70
2023-05-05T05:41:28.714Z,9.77
2023-05-05T05:46:31.254Z,9.80
2023-05-05T05:51:35.081Z,9.84
2023-05-05T05:56:37.567Z,9.89
2023-05-05T06:01:40.432Z,9.84
2023-05-05T06:06:44.264Z,9.89
2023-05-05T06:11:46.739Z,9.84
2023-05-05T06:16:49.297Z,9.90
2023-05-05T06:21:53.133Z,9.90
2023-05-05T06:26:55.618Z,10.09
2023-05-05T06:31:58.087Z,10.32
2023-05-05T06:37:01.914Z,10.53
2023-05-05T06:42:04.786Z,10.69
2023-05-05T06:47:07.730Z,10.89
2023-05-05T06:52:12.544Z,10.72
2023-05-05T06:57:15.062Z,10.89
2023-05-05T07:02:17.555Z,11.07
2023-05-05T07:07:21.589Z,11.27
2023-05-05T07:12:24.231Z,11.42
2023-05-05T07:17:26.768Z,11.60
2023-05-05T07:22:30.618Z,11.77
2023-05-05T07:27:33.650Z,11.80
2023-05-05T07:32:36.338Z,11.72
2023-05-05T07:37:40.174Z,11.67
2023-05-05T07:42:42.710Z,11.63
2023-05-05T07:47:45.348Z,11.87
2023-05-05T07:52:54.016Z,11.89
2023-05-05T07:58:03.647Z,12.09
2023-05-05T08:03:07.780Z,12.29
2023-05-05T08:08:13.711Z,12.40
2023-05-05T08:13:16.275Z,12.49
2023-05-05T08:18:18.926Z,12.75
2023-05-05T08:23:22.746Z,12.73
2023-05-05T08:28:25.277Z,12.63
2023-05-05T08:33:27.743Z,12.75
2023-05-05T08:38:31.556Z,12.63
2023-05-05T08:43:35.807Z,12.82
2023-05-05T08:48:41.344Z,12.70
2023-05-05T08:53:52.278Z,12.72
2023-05-05T08:58:57.276Z,12.81
2023-05-05T09:04:00.489Z,12.89
2023-05-05T09:09:04.843Z,13.14
2023-05-05T09:14:07.389Z,13.27
2023-05-05T09:19:09.877Z,13.63
2023-05-05T09:24:15.521Z,13.35
2023-05-05T09:29:21.762Z,13.36
2023-05-05T09:34:24.471Z,13.49
2023-05-05T09:39:28.420Z,13.45
2023-05-05T09:44:35.114Z,13.45
2023-05-05T09:49:39.488Z,13.62
2023-05-05T09:54:44.248Z,13.72
2023-05-05T09:59:56.410Z,13.65
2023-05-05T10:05:12.722Z,13.49
2023-05-05T10:10:19.272Z,13.90
2023-05-05T10:15:22.837Z,14.01
2023-05-05T10:20:26.752Z,14.13
2023-05-05T10:25:34.064Z,13.95
2023-05-05T10:30:44.135Z,13.86
2023-05-05T10:35:51.566Z,13.75
2023-05-05T10:40:58.596Z,13.78
2023-05-05T10:46:01.350Z,13.74
2023-05-05T10:51:35.223Z,13.80
2023-05-05T10:56:43.745Z,13.82
2023-05-05T11:01:46.356Z,13.78
2023-05-05T11:07:23.101Z,13.89
2023-05-05T11:12:26.911Z,13.96
2023-05-05T11:17:46.245Z,14.00
2023-05-05T11:23:23.077Z,13.82
2023-05-05T11:28:29.944Z,13.60
2023-05-05T11:33:33.665Z,13.73
2023-05-05T11:38:49.273Z,13.87
2023-05-05T11:44:09.630Z,13.87
2023-05-05T11:49:12.170Z,14.11
2023-05-05T11:54:20.726Z,13.85
2023-05-05T11:59:24.588Z,13.79
2023-05-05T12:04:27.306Z,13.54
2023-05-05T12:09:29.891Z,13.57
2023-05-05T12:14:34.380Z,13.58
2023-05-05T12:19:36.894Z,13.41
2023-05-05T12:24:39.496Z,13.37
2023-05-05T12:29:43.331Z,13.51
2023-05-05T12:34:46.103Z,13.78
2023-05-05T12:39:48.840Z,13.96
2023-05-05T12:44:52.828Z,14.20
2023-05-05T12:49:55.348Z,14.27
2023-05-05T12:54:59.452Z,14.23
2023-05-05T13:00:13.810Z,14.47
2023-05-05T13:05:16.293Z,14.36
2023-05-05T13:10:18.842Z,14.38
2023-05-05T13:15:22.685Z,14.42
2023-05-05T13:20:25.167Z,14.52
2023-05-05T13:25:27.913Z,14.70
2023-05-05T13:30:31.736Z,14.65
2023-05-05T13:35:34.231Z,14.76
2023-05-05T13:40:36.841Z,14.84
2023-05-05T13:45:41.901Z,14.93
2023-05-05T13:50:44.605Z,14.82
2023-05-05T13:55:47.121Z,14.65
2023-05-05T14:00:51.515Z,14.68
2023-05-05T14:05:54.031Z,14.65
2023-05-05T14:10:57.839Z,14.69
2023-05-05T14:16:01.766Z,14.50
2023-05-05T14:21:04.457Z,14.30
2023-05-05T14:26:08.762Z,14.26
2023-05-05T14:31:12.678Z,14.07
2023-05-05T14:36:15.178Z,14.00
2023-05-05T14:41:17.690Z,13.89
2023-05-05T14:46:21.634Z,14.06
2023-05-05T14:51:24.483Z,13.90
2023-05-05T14:56:28.118Z,13.81
2023-05-05T15:01:32.111Z,13.75
2023-05-05T15:06:34.640Z,13.61
2023-05-05T15:11:37.813Z,13.59
2023-05-05T15:16:41.690Z,13.25
2023-05-05T15:21:44.220Z,13.08
2023-05-05T15:26:46.698Z,12.97
2023-05-05T15:31:50.639Z,12.72
2023-05-05T15:36:53.164Z,12.49
2023-05-05T15:41:55.871Z,12.47
2023-05-05T15:46:59.785Z,12.59
2023-05-05T15:52:02.341Z,12.41
2023-05-05T15:57:04.947Z,12.09
2023-05-05T16:02:08.759Z,12.06
2023-05-05T16:07:11.289Z,12.02
2023-05-05T16:12:16.729Z,11.69
2023-05-05T16:17:22.263Z,11.47
2023-05-05T16:22:25.244Z,11.31
2023-05-05T16:27:27.751Z,11.28
2023-05-05T16:32:31.718Z,11.21
2023-05-05T16:37:34.306Z,11.06
2023-05-05T16:42:36.824Z,11.00
2023-05-05T16:47:40.921Z,10.90
2023-05-05T16:52:43.430Z,10.86
2023-05-05T16:57:47.138Z,10.89
2023-05-05T17:02:51.089Z,10.68
2023-05-05T17:07:53.595Z,10.51
2023-05-05T17:12:56.166Z,10.30
2023-05-05T17:18:00.140Z,10.15
2023-05-05T17:23:03.316Z,10.11
2023-05-05T17:28:07.319Z,9.98
2023-05-05T17:33:11.306Z,9.89
2023-05-05T17:38:13.875Z,9.82
2023-05-05T17:43:16.382Z,9.83
2023-05-05T17:48:20.277Z,9.79
2023-05-05T17:53:23.085Z,9.77
2023-05-05T17:58:25.624Z,9.77
2023-05-05T18:03:29.601Z,9.70
2023-05-05T18:08:32.153Z,9.70
2023-05-05T18:13:34.649Z,9.69
2023-05-05T18:18:38.566Z,9.61
2023-05-05T18:23:41.293Z,9.56
2023-05-05T18:28:43.781Z,9.48
2023-05-05T18:33:47.899Z,9.41
2023-05-05T18:38:50.901Z,9.26
2023-05-05T18:43:53.427Z,9.28
2023-05-05T18:48:57.457Z,9.35
2023-05-05T18:54:00.802Z,9.18
2023-05-05T18:59:04.613Z,9.28
2023-05-05T19:04:22.543Z,9.19
2023-05-05T19:09:29.596Z,9.26
2023-05-05T19:14:32.100Z,9.09
2023-05-05T19:19:35.978Z,9.00
2023-05-05T19:24:38.521Z,8.98
2023-05-05T19:29:41.240Z,8.99
2023-05-05T19:34:45.105Z,8.97
2023-05-05T19:39:48.583Z,8.90
2023-05-05T19:44:52.126Z,8.89
2023-05-05T19:49:55.976Z,8.86
2023-05-05T19:54:59.772Z,8.89
2023-05-05T20:00:02.329Z,8.84
2023-05-05T20:05:07.108Z,8.80
2023-05-05T20:10:10.676Z,8.82
2023-05-05T20:15:13.493Z,8.81
2023-05-05T20:20:19.962Z,8.81
2023-05-05T20:25:22.499Z,8.82
2023-05-05T20:30:25.012Z,8.85
2023-05-05T20:35:28.844Z,8.88
2023-05-05T20:40:31.554Z,8.89
2023-05-05T20:45:34.605Z,8.90
2023-05-05T20:50:39.319Z,8.80
2023-05-05T20:55:42.038Z,8.81
2023-05-05T21:00:44.564Z,8.82
2023-05-05T21:05:48.427Z,8.84
2023-05-05T21:10:50.953Z,8.86
2023-05-05T21:15:53.439Z,8.96
2023-05-05T21:20:57.243Z,8.89
2023-05-05T21:25:59.932Z,8.87
2023-05-05T21:31:20.489Z,8.85
2023-05-05T21:36:25.422Z,8.88
2023-05-05T21:41:27.933Z,8.90
2023-05-05T21:46:30.434Z,8.88
2023-05-05T21:51:34.890Z,8.89
2023-05-05T21:56:38.081Z,8.91
2023-05-05T22:01:40.693Z,8.93
2023-05-05T22:06:44.611Z,8.94
2023-05-05T22:11:47.438Z,8.96
2023-05-05T22:16:49.983Z,8.93
2023-05-05T22:21:54.157Z,8.95
2023-05-05T22:26:57.322Z,9.00
2023-05-05T22:31:59.825Z,8.98
2023-05-05T22:37:03.646Z,9.10
2023-05-05T22:42:06.501Z,8.99
2023-05-05T22:47:09.124Z,9.04
2023-05-05T22:52:13.620Z,9.04
2023-05-05T22:57:16.249Z,9.04
2023-05-05T23:02:18.736Z,8.97
2023-05-05T23:07:22.631Z,8.89
2023-05-05T23:12:25.094Z,8.85
2023-05-05T23:17:27.599Z,8.81
2023-05-05T23:22:31.416Z,8.66
2023-05-05T23:27:33.973Z,8.58
2023-05-05T23:32:36.486Z,8.46
2023-05-05T23:37:40.302Z,8.42
2023-05-05T23:42:42.769Z,8.38
2023-05-05T23:47:45.258Z,8.32
2023-05-05T23:52:49.083Z,8.28
2023-05-05T23:57:53.034Z,8.29
